Time;durP1;ratioP1;P1;durP2;ratioP2;P2;SDS_P1;SDS_P2;PMS_P1;PMS_P2;Temp;Humidity;BMP_temperature;BMP_pressure;BME280_temperature;BME280_humidity;BME280_pressure;Samples;Min_cycle;Max_cycle;Signal;HPM_P1;HPM_P2
2022/04/28 00:00:41;;;;;;;23.20;13.35;;;;;;;10.41;68.26;101159.56;5056809;28;20028;-82
2022/04/28 00:03:07;;;;;;;26.70;14.50;;;;;;;10.27;70.00;101160.81;5040198;28;20059;-82
2022/04/28 00:05:33;;;;;;;31.80;14.02;;;;;;;10.04;69.58;101146.13;5040129;28;20078;-82
2022/04/28 00:07:58;;;;;;;26.83;14.82;;;;;;;10.05;68.64;101159.91;5074726;28;20028;-82
2022/04/28 00:10:24;;;;;;;24.90;15.23;;;;;;;9.91;68.45;101135.53;5075418;28;20514;-82
2022/04/28 00:12:49;;;;;;;28.10;14.20;;;;;;;9.95;68.71;101146.78;5060038;28;20016;-82
2022/04/28 00:15:15;;;;;;;25.67;15.10;;;;;;;9.91;69.42;101155.44;5059940;28;20044;-82
2022/04/28 00:17:40;;;;;;;26.25;13.95;;;;;;;9.87;69.37;101151.09;5059796;28;20020;-82
2022/04/28 00:20:07;;;;;;;24.63;14.32;;;;;;;9.74;68.91;101127.53;5076389;28;20077;-82
2022/04/28 00:22:32;;;;;;;24.75;13.95;;;;;;;9.77;69.22;101144.47;5076455;28;20066;-82
2022/04/28 00:24:58;;;;;;;32.72;14.20;;;;;;;9.71;68.96;101151.22;5064740;28;20024;-82
2022/04/28 00:27:24;;;;;;;23.73;13.23;;;;;;;9.69;69.54;101148.81;5056400;28;20089;-82
2022/04/28 00:29:49;;;;;;;23.70;13.27;;;;;;;9.63;69.59;101150.59;5056348;28;20529;-83
2022/04/28 00:32:15;;;;;;;27.42;12.98;;;;;;;9.57;70.59;101151.63;5039953;28;20029;-84
2022/04/28 00:34:41;;;;;;;30.38;15.32;;;;;;;9.50;70.70;101155.47;5073155;28;20381;-85
2022/04/28 00:37:08;;;;;;;26.00;13.80;;;;;;;9.34;70.21;101139.28;5056839;28;20032;-83
2022/04/28 00:39:33;;;;;;;23.92;13.55;;;;;;;9.30;71.31;101143.47;5057459;28;20106;-83
2022/04/28 00:41:58;;;;;;;28.55;14.18;;;;;;;9.27;71.08;101153.72;5074864;28;20020;-83
2022/04/28 00:44:24;;;;;;;24.88;13.13;;;;;;;9.20;72.66;101168.13;5077575;28;20541;-82
2022/04/28 00:46:49;;;;;;;27.13;14.05;;;;;;;9.06;72.06;101154.31;5077582;28;20093;-83
2022/04/28 00:51:59;;;;;;;25.98;13.80;;;;;;;8.90;72.68;101169.34;5079769;28;20051;-83
2022/04/28 00:54:26;;;;;;;25.48;13.32;;;;;;;8.79;72.87;101156.66;5058976;28;20449;-83
2022/04/28 00:56:51;;;;;;;26.25;13.52;;;;;;;8.78;73.08;101167.22;5075624;28;20020;-83
2022/04/28 00:59:17;;;;;;;25.50;14.07;;;;;;;8.68;73.24;101152.03;5075819;28;20112;-83
2022/04/28 01:01:42;;;;;;;27.63;13.98;;;;;;;8.69;73.50;101161.38;5094082;28;20024;-83
2022/04/28 01:04:08;;;;;;;24.10;14.25;;;;;;;8.63;74.26;101146.13;5075905;28;20020;-83
2022/04/28 01:06:33;;;;;;;28.33;15.10;;;;;;;8.59;74.60;101157.56;5094116;28;20031;-83
2022/04/28 01:08:59;;;;;;;30.27;14.82;;;;;;;8.64;74.20;101168.38;5059097;28;20042;-83
2022/04/28 01:11:26;;;;;;;28.88;15.82;;;;;;;8.55;74.32;101151.19;5075385;28;20055;-83
2022/04/28 01:13:51;;;;;;;31.38;14.95;;;;;;;8.51;73.56;101149.66;5094386;28;20032;-84
2022/04/28 01:16:16;;;;;;;29.70;14.63;;;;;;;8.50;74.22;101154.56;5076052;28;20020;-83
2022/04/28 01:18:42;;;;;;;31.83;15.90;;;;;;;8.52;74.35;101165.47;5058841;28;20024;-84
2022/04/28 01:21:08;;;;;;;29.00;15.30;;;;;;;8.44;74.80;101153.47;5093661;28;20034;-83
2022/04/28 01:23:35;;;;;;;31.80;15.52;;;;;;;8.41;75.33;101150.75;5058829;28;20105;-84
2022/04/28 01:26:01;;;;;;;29.77;14.27;;;;;;;8.33;74.89;101152.16;5075384;28;20107;-83
2022/04/28 01:28:27;;;;;;;24.98;14.25;;;;;;;8.29;75.65;101157.09;5058840;28;20020;-83
2022/04/28 01:30:53;;;;;;;25.83;15.05;;;;;;;8.18;76.27;101157.34;5058947;28;20027;-84
2022/04/28 01:33:18;;;;;;;29.05;15.88;;;;;;;8.20;75.91;101157.69;5058858;28;20036;-83
2022/04/28 01:35:43;;;;;;;31.38;15.43;;;;;;;8.10;75.70;101150.22;5075660;28;20027;-84
2022/04/28 01:38:09;;;;;;;25.73;14.48;;;;;;;8.11;76.88;101157.50;5075487;28;20020;-83
2022/04/28 01:40:35;;;;;;;28.85;14.85;;;;;;;8.07;77.00;101153.97;5075521;28;20036;-84
2022/04/28 01:43:00;;;;;;;26.77;15.25;;;;;;;8.08;75.79;101164.88;5058722;28;20081;-83
2022/04/28 01:45:25;;;;;;;29.13;15.02;;;;;;;7.98;76.10;101162.28;5075336;28;20035;-84
2022/04/28 01:47:51;;;;;;;27.08;15.85;;;;;;;7.87;76.07;101147.53;5058609;28;20373;-83
2022/04/28 01:50:16;;;;;;;23.38;14.30;;;;;;;7.98;76.91;101170.78;5059022;28;20029;-83
2022/04/28 01:55:25;;;;;;;28.52;15.85;;;;;;;7.83;77.02;101156.16;5078418;28;20031;-83
2022/04/28 01:57:51;;;;;;;25.90;14.55;;;;;;;7.85;77.00;101167.03;5075198;28;20017;-83
2022/04/28 02:00:16;;;;;;;28.27;15.05;;;;;;;7.77;77.40;101170.03;5075597;28;20031;-82
2022/04/28 02:02:43;;;;;;;29.42;15.05;;;;;;;7.74;76.82;101167.28;5058351;28;20024;-83
2022/04/28 02:05:09;;;;;;;25.88;15.15;;;;;;;7.72;77.44;101173.38;5095433;28;20106;-83
2022/04/28 02:07:35;;;;;;;28.40;14.80;;;;;;;7.66;77.16;101169.47;5062277;28;20440;-84
2022/04/28 02:10:02;;;;;;;24.90;15.07;;;;;;;7.67;77.92;101173.09;5078984;28;20054;-83
2022/04/28 02:12:28;;;;;;;26.77;14.23;;;;;;;7.59;78.12;101163.16;5078682;28;20051;-83
2022/04/28 02:14:53;;;;;;;28.02;15.02;;;;;;;7.53;78.11;101159.22;5079148;28;20020;-82
2022/04/28 02:17:20;;;;;;;25.77;14.63;;;;;;;7.57;79.09;101174.13;5078870;28;20020;-83
2022/04/28 02:19:45;;;;;;;26.10;13.93;;;;;;;7.47;78.62;101166.63;5062164;28;20544;-83
2022/04/28 02:22:10;;;;;;;27.05;15.02;;;;;;;7.43;79.25;101172.41;5062139;28;20114;-83
2022/04/28 02:24:36;;;;;;;35.60;14.75;;;;;;;7.47;79.45;101177.97;5061987;28;20028;-82
2022/04/28 02:27:01;;;;;;;27.20;14.95;;;;;;;7.40;79.43;101172.47;5078835;28;20020;-83
2022/04/28 02:29:27;;;;;;;28.85;14.60;;;;;;;7.33;80.33;101162.88;5096930;28;20091;-82
2022/04/28 02:31:52;;;;;;;28.77;15.40;;;;;;;7.31;80.47;101164.53;5078726;28;20430;-82
2022/04/28 02:34:17;;;;;;;29.23;16.10;;;;;;;7.30;80.20;101168.63;5061920;28;20051;-83
2022/04/28 02:36:43;;;;;;;27.63;15.63;;;;;;;7.21;80.50;101163.50;5061573;28;20479;-83
2022/04/28 02:39:09;;;;;;;28.80;15.10;;;;;;;7.24;80.00;101171.16;5096954;28;20429;-83
2022/04/28 02:41:35;;;;;;;27.60;15.65;;;;;;;7.20;80.12;101167.56;5078861;28;20044;-82
2022/04/28 02:44:01;;;;;;;25.90;14.70;;;;;;;7.12;80.73;101157.63;5078667;28;20024;-83
2022/04/28 02:46:27;;;;;;;27.88;13.00;;;;;;;7.12;80.47;101171.78;5096513;28;20038;-83
2022/04/28 02:48:52;;;;;;;25.98;15.57;;;;;;;7.07;81.52;101171.50;5096548;28;20524;-83
2022/04/28 02:51:18;;;;;;;27.33;14.93;;;;;;;7.02;81.40;101169.97;5078059;28;20024;-83
2022/04/28 02:53:43;;;;;;;31.23;16.42;;;;;;;6.91;82.02;101169.34;5061405;28;20039;-83
2022/04/28 02:56:09;;;;;;;25.52;14.25;;;;;;;6.96;81.42;101168.84;5078392;28;20353;-83
2022/04/28 02:58:34;;;;;;;32.00;17.05;;;;;;;6.96;82.46;101183.00;5078144;28;20104;-83
2022/04/28 03:01:01;;;;;;;28.02;16.48;;;;;;;6.84;81.79;101163.84;5061302;28;20457;-83
2022/04/28 03:03:26;;;;;;;27.05;16.73;;;;;;;6.85;81.53;101171.09;5078169;28;20112;-84
2022/04/28 03:11:20;;;;;;;25.58;14.73;;;;;;;6.80;82.35;101192.22;5080423;28;20523;-83
2022/04/28 03:13:45;;;;;;;27.23;14.45;;;;;;;6.77;82.14;101190.22;5077812;28;20020;-83
2022/04/28 03:16:11;;;;;;;27.73;14.50;;;;;;;6.66;82.92;101189.63;5059995;28;20020;-83
2022/04/28 03:18:37;;;;;;;29.45;14.80;;;;;;;6.64;82.80;101183.59;5077616;28;20039;-82
2022/04/28 03:21:05;;;;;;;27.80;14.73;;;;;;;6.61;83.51;101183.66;5061132;28;20031;-83
2022/04/28 03:23:30;;;;;;;25.73;13.93;;;;;;;6.63;82.59;101198.19;5061188;28;20380;-83
2022/04/28 03:25:56;;;;;;;31.02;14.82;;;;;;;6.62;82.81;101202.22;5077475;28;20559;-82
2022/04/28 03:28:22;;;;;;;27.13;14.55;;;;;;;6.59;82.41;101194.59;5077802;28;20016;-82
2022/04/28 03:30:51;;;;;;;29.90;15.40;;;;;;;6.53;82.29;101199.94;5060769;28;20027;-82
2022/04/28 03:33:17;;;;;;;26.15;14.10;;;;;;;6.50;82.63;101195.16;5060798;28;20427;-82
2022/04/28 03:35:43;;;;;;;28.10;15.18;;;;;;;6.50;83.55;101201.63;5077762;28;20048;-82
2022/04/28 03:38:13;;;;;;;24.15;14.98;;;;;;;6.50;82.70;101198.00;5062238;28;20058;-81
2022/04/28 03:40:43;;;;;;;27.45;15.63;;;;;;;6.50;82.87;101198.00;5079592;28;20020;-82
2022/04/28 03:43:09;;;;;;;29.20;14.88;;;;;;;6.57;82.76;101197.06;5077696;28;20067;-83
2022/04/28 03:45:35;;;;;;;26.73;14.20;;;;;;;6.57;83.05;101206.34;5077386;28;20384;-85
2022/04/28 03:48:01;;;;;;;25.00;13.77;;;;;;;6.59;82.38;101205.94;5095413;28;20477;-84
2022/04/28 03:50:29;;;;;;;27.15;13.23;;;;;;;6.55;82.33;101196.69;5060806;28;20438;-84
2022/04/28 03:52:55;;;;;;;26.52;14.15;;;;;;;6.60;81.86;101202.69;5060746;28;20027;-84
2022/04/28 03:55:21;;;;;;;22.77;13.55;;;;;;;6.64;82.11;101208.28;5054150;28;20063;-84
2022/04/28 03:57:46;;;;;;;24.25;13.93;;;;;;;6.63;81.65;101198.97;5057114;28;20067;-82
2022/04/28 04:00:12;;;;;;;22.42;12.07;;;;;;;6.70;81.06;101215.84;5057011;28;20016;-84
2022/04/28 04:02:37;;;;;;;22.88;13.68;;;;;;;6.68;80.34;101212.63;5060608;28;20028;-84
2022/04/28 04:05:03;;;;;;;21.48;13.00;;;;;;;6.70;80.44;101218.69;5074863;28;20473;-84
2022/04/28 04:07:32;;;;;;;27.15;12.55;;;;;;;6.79;80.83;101227.44;5069101;28;20377;-85
2022/04/28 04:09:58;;;;;;;23.30;13.13;;;;;;;6.83;80.70;101241.50;5056999;28;20016;-84
2022/04/28 04:12:25;;;;;;;24.42;12.18;;;;;;;6.85;79.98;101237.03;5040007;28;20063;-84
2022/04/28 04:14:54;;;;;;;25.02;14.13;;;;;;;6.88;80.54;101233.31;5040081;28;20012;-84
2022/04/28 04:17:20;;;;;;;22.42;12.18;;;;;;;6.92;80.19;101228.41;5056592;28;20465;-84
2022/04/28 04:19:45;;;;;;;26.65;12.80;;;;;;;7.00;79.95;101231.91;5039936;28;20025;-82
2022/04/28 04:22:11;;;;;;;21.27;11.30;;;;;;;7.08;79.44;101233.38;5074603;28;20029;-82
2022/04/28 04:24:36;;;;;;;23.23;12.00;;;;;;;7.15;78.96;101235.28;5073469;28;20078;-83
2022/04/28 04:27:02;;;;;;;22.35;12.48;;;;;;;7.22;78.48;101243.66;5056074;28;20024;-82
2022/04/28 04:29:27;;;;;;;27.40;11.98;;;;;;;7.28;78.65;101241.91;5072794;28;20036;-82
2022/04/28 04:34:38;;;;;;;20.05;12.18;;;;;;;7.32;77.66;101234.16;5073317;28;20060;-82
2022/04/28 04:37:04;;;;;;;21.63;12.10;;;;;;;7.45;78.41;101249.25;5056079;28;20035;-82
2022/04/28 04:39:30;;;;;;;23.48;12.13;;;;;;;7.57;77.81;101262.81;5056194;28;20486;-83
2022/04/28 04:41:58;;;;;;;22.08;12.15;;;;;;;7.66;77.10;101263.03;5041798;28;20071;-86
2022/04/28 04:44:24;;;;;;;19.33;11.38;;;;;;;7.74;77.23;101263.69;5090093;28;20032;-84
2022/04/28 04:46:49;;;;;;;17.65;10.55;;;;;;;7.81;76.72;101255.03;5056294;28;20024;-85
2022/04/28 04:49:14;;;;;;;21.23;11.57;;;;;;;7.90;76.77;101265.78;5072742;28;20071;-85
2022/04/28 04:51:40;;;;;;;20.05;11.93;;;;;;;7.91;76.35;101271.03;5089740;28;20479;-79
2022/04/28 04:54:07;;;;;;;22.67;12.05;;;;;;;8.03;76.05;101264.69;5055945;28;20036;-80
2022/04/28 04:56:33;;;;;;;19.00;11.07;;;;;;;8.09;75.03;101262.16;5055614;28;20102;-78
2022/04/28 04:59:00;;;;;;;21.02;10.88;;;;;;;8.22;75.23;101271.56;5055090;28;20033;-78
2022/04/28 05:01:25;;;;;;;19.35;10.32;;;;;;;8.32;74.60;101264.09;5089035;28;20032;-78
2022/04/28 05:03:53;;;;;;;16.75;10.95;;;;;;;8.44;74.25;101274.75;5072400;28;20352;-77
2022/04/28 05:06:19;;;;;;;22.52;10.77;;;;;;;8.54;73.49;101280.19;5073509;28;20428;-78
2022/04/28 05:08:45;;;;;;;15.98;10.52;;;;;;;8.65;73.87;101275.06;5073569;28;20376;-79
2022/04/28 05:11:11;;;;;;;19.67;10.50;;;;;;;8.79;72.75;101278.78;5081409;28;20549;-76
2022/04/28 05:13:37;;;;;;;20.35;10.68;;;;;;;8.89;72.31;101266.34;5068699;28;20108;-74
2022/04/28 05:16:04;;;;;;;15.63;9.77;;;;;;;8.96;72.17;101272.69;5053532;28;20025;-74
2022/04/28 05:18:30;;;;;;;14.55;9.32;;;;;;;9.08;71.71;101282.50;5053191;28;20127;-74
2022/04/28 05:20:55;;;;;;;20.20;9.98;;;;;;;9.22;72.08;101273.66;5035489;28;20529;-74
2022/04/28 05:23:21;;;;;;;18.75;9.68;;;;;;;9.37;71.44;101272.00;5035641;28;20037;-74
2022/04/28 05:25:48;;;;;;;19.65;10.23;;;;;;;9.54;71.23;101279.25;5068766;28;20033;-73
2022/04/28 05:28:14;;;;;;;17.20;9.57;;;;;;;9.67;70.89;101278.53;5053175;28;20025;-74
2022/04/28 05:30:39;;;;;;;18.35;9.13;;;;;;;9.94;70.76;101293.19;5035466;28;20093;-76
2022/04/28 05:33:05;;;;;;;16.98;8.48;;;;;;;10.15;68.93;101286.88;5034731;28;20402;-75
2022/04/28 05:35:31;;;;;;;17.08;8.63;;;;;;;10.44;67.73;101295.38;5018796;28;20032;-75
2022/04/28 05:37:57;;;;;;;15.35;8.77;;;;;;;10.74;67.46;101274.88;5033727;28;20059;-76
2022/04/28 05:40:22;;;;;;;14.23;8.48;;;;;;;11.19;66.41;101283.16;5037480;28;20040;-75
2022/04/28 05:45:47;;;;;;;16.35;7.93;;;;;;;11.96;63.52;101273.06;5074761;28;20123;-75
2022/04/28 05:48:14;;;;;;;12.10;6.72;;;;;;;12.47;62.10;101272.72;5061389;28;20017;-74
2022/04/28 05:50:40;;;;;;;12.65;7.05;;;;;;;12.92;58.32;101278.66;5040800;28;20052;-75
2022/04/28 05:53:06;;;;;;;11.88;6.28;;;;;;;13.43;58.60;101280.19;5057172;28;20115;-75
2022/04/28 05:55:31;;;;;;;15.02;6.70;;;;;;;13.88;55.80;101276.56;5074537;28;20376;-76
2022/04/28 05:58:00;;;;;;;10.15;6.82;;;;;;;14.32;55.93;101276.97;5074499;28;20032;-75
2022/04/28 06:00:30;;;;;;;13.32;5.88;;;;;;;14.85;51.23;101280.16;5057033;28;20108;-75
2022/04/28 06:02:55;;;;;;;13.50;6.93;;;;;;;15.37;53.32;101282.41;5056609;28;20016;-76
2022/04/28 06:05:21;;;;;;;11.57;5.88;;;;;;;15.73;50.49;101271.97;5074932;28;20024;-77
2022/04/28 06:07:47;;;;;;;11.38;6.22;;;;;;;16.23;47.92;101288.09;5057552;28;20024;-75
2022/04/28 06:10:13;;;;;;;10.82;6.00;;;;;;;16.60;48.57;101290.59;5058494;28;20021;-75
2022/04/28 06:12:39;;;;;;;8.93;4.90;;;;;;;16.87;46.53;101287.41;5058616;28;20041;-75
2022/04/28 06:15:05;;;;;;;10.55;6.25;;;;;;;16.99;45.16;101291.25;5076717;28;20020;-75
2022/04/28 06:17:30;;;;;;;11.38;7.05;;;;;;;17.10;46.20;101295.09;5058431;28;20503;-75
2022/04/28 06:19:57;;;;;;;12.23;5.80;;;;;;;17.14;44.30;101300.63;5058300;28;20584;-75
2022/04/28 06:22:23;;;;;;;8.70;5.90;;;;;;;17.20;45.26;101287.91;5058210;28;20028;-75
2022/04/28 06:24:55;;;;;;;8.55;5.80;;;;;;;17.22;43.43;101305.47;5041631;28;20484;-75
2022/04/28 06:27:21;;;;;;;9.13;5.20;;;;;;;17.11;43.06;101310.28;5076841;28;20028;-75
2022/04/28 06:29:48;;;;;;;17.55;7.97;;;;;;;16.97;43.61;101303.25;5058284;28;20473;-75
2022/04/28 06:32:16;;;;;;;14.18;7.10;;;;;;;17.30;43.54;101307.94;5058750;28;20078;-75
2022/04/28 06:34:43;;;;;;;9.20;5.53;;;;;;;18.16;42.68;101310.88;5041504;28;20032;-75
2022/04/28 06:37:08;;;;;;;11.88;5.57;;;;;;;19.21;40.08;101319.75;5041156;28;20032;-75
2022/04/28 06:39:34;;;;;;;8.85;5.35;;;;;;;20.23;36.15;101308.13;5075978;28;20025;-75
2022/04/28 06:41:59;;;;;;;10.35;5.10;;;;;;;21.45;34.27;101304.50;5058149;28;20031;-75
2022/04/28 06:44:24;;;;;;;8.43;5.55;;;;;;;22.76;33.15;101309.41;5057872;28;20389;-76
2022/04/28 06:46:50;;;;;;;6.40;4.53;;;;;;;24.15;28.73;101309.22;5041072;28;20032;-76
2022/04/28 06:49:15;;;;;;;8.23;5.00;;;;;;;25.25;29.54;101315.47;5041359;28;20090;-76
2022/04/28 06:51:40;;;;;;;9.40;5.38;;;;;;;26.15;25.49;101309.38;5075878;28;20025;-75
2022/04/28 06:54:06;;;;;;;7.97;4.95;;;;;;;26.89;25.77;101313.00;5041429;28;20177;-75
2022/04/28 06:56:31;;;;;;;6.03;4.80;;;;;;;27.39;23.07;101317.53;5076094;28;20021;-74
2022/04/28 06:58:56;;;;;;;8.50;4.70;;;;;;;27.76;23.17;101318.41;5075806;28;20431;-75
2022/04/28 07:01:22;;;;;;;6.10;4.30;;;;;;;28.44;22.88;101324.63;5075761;28;20033;-76
2022/04/28 07:03:47;;;;;;;6.03;4.88;;;;;;;29.26;21.98;101328.28;5075955;28;20358;-76
2022/04/28 07:06:12;;;;;;;8.52;4.88;;;;;;;29.46;21.93;101326.56;5075635;28;20059;-76
2022/04/28 07:08:38;;;;;;;6.70;4.40;;;;;;;30.14;21.50;101326.44;5057514;28;20028;-75
2022/04/28 07:11:04;;;;;;;5.63;4.05;;;;;;;30.46;20.55;101325.72;5081717;28;20176;-75
2022/04/28 07:13:29;;;;;;;10.85;5.22;;;;;;;30.33;19.20;101323.81;5095732;28;20035;-75
2022/04/28 07:15:54;;;;;;;7.53;3.97;;;;;;;29.87;19.29;101319.44;5095903;28;20157;-75
2022/04/28 07:18:20;;;;;;;6.85;4.93;;;;;;;30.62;20.41;101318.38;5060892;28;20039;-75
2022/04/28 07:20:45;;;;;;;7.40;3.93;;;;;;;30.76;17.10;101313.78;5077509;28;20477;-75
2022/04/28 07:23:11;;;;;;;6.80;4.20;;;;;;;30.38;18.25;101327.91;5095425;28;20277;-74
2022/04/28 07:25:36;;;;;;;6.82;3.72;;;;;;;31.12;18.47;101321.41;5077608;28;20461;-74
2022/04/28 07:28:01;;;;;;;5.93;3.80;;;;;;;31.86;18.48;101330.16;5095722;28;20020;-76
2022/04/28 07:30:27;;;;;;;5.95;3.33;;;;;;;31.95;17.37;101326.53;5077383;28;20039;-76
2022/04/28 07:32:52;;;;;;;5.40;4.28;;;;;;;31.67;17.86;101321.16;5095334;28;20425;-76
2022/04/28 07:35:19;;;;;;;5.68;3.53;;;;;;;32.08;15.91;101319.47;5077162;28;20055;-75
2022/04/28 07:37:45;;;;;;;6.18;4.85;;;;;;;32.07;17.23;101320.91;5077397;28;20081;-75
2022/04/28 07:40:11;;;;;;;5.45;3.58;;;;;;;31.89;15.66;101319.31;5076955;28;20472;-74
2022/04/28 07:42:36;;;;;;;3.75;3.08;;;;;;;32.16;16.01;101329.06;5060364;28;20028;-76
2022/04/28 07:45:04;;;;;;;6.35;3.60;;;;;;;31.88;17.77;101324.44;5095211;28;20392;-76
2022/04/28 07:47:29;;;;;;;3.58;3.05;;;;;;;32.28;16.93;101326.34;5095046;28;20028;-75
2022/04/28 07:49:55;;;;;;;4.63;3.28;;;;;;;32.36;16.80;101330.78;5076879;28;20085;-77
2022/04/28 07:52:21;;;;;;;5.13;3.50;;;;;;;32.43;16.18;101323.97;5095057;28;20031;-75
2022/04/28 07:54:46;;;;;;;5.85;3.30;;;;;;;32.41;16.44;101326.00;5095218;28;20533;-76
2022/04/28 07:57:11;;;;;;;3.75;3.35;;;;;;;32.31;16.34;101308.22;5094907;28;20020;-75
2022/04/28 07:59:37;;;;;;;3.08;2.75;;;;;;;32.41;14.96;101323.84;5095051;28;20020;-77
2022/04/28 08:02:03;;;;;;;4.13;2.90;;;;;;;32.47;15.45;101318.41;5075904;28;20374;-76
2022/04/28 08:04:29;;;;;;;3.20;2.80;;;;;;;32.19;15.16;101309.34;5076525;28;20059;-75
2022/04/28 08:06:54;;;;;;;5.97;2.53;;;;;;;32.14;15.48;101326.72;5095028;28;20102;-75
2022/04/28 08:09:19;;;;;;;2.97;2.30;;;;;;;31.91;14.69;101322.44;5059770;28;20113;-76
2022/04/28 08:11:45;;;;;;;3.75;2.53;;;;;;;31.73;15.12;101325.38;5064383;28;20044;-75
2022/04/28 08:14:10;;;;;;;4.60;2.30;;;;;;;31.59;16.39;101320.41;5039755;28;20020;-75
2022/04/28 08:16:35;;;;;;;2.97;2.13;;;;;;;31.50;16.37;101321.84;5056106;28;20035;-75
2022/04/28 08:19:02;;;;;;;2.78;2.47;;;;;;;31.08;16.42;101324.78;5056554;28;20039;-75
2022/04/28 08:21:28;;;;;;;5.85;2.22;;;;;;;30.67;16.83;101332.09;5056173;28;20060;-74
2022/04/28 08:23:53;;;;;;;3.58;1.75;;;;;;;31.21;16.74;101326.63;5074198;28;20040;-75
2022/04/28 08:26:19;;;;;;;2.83;2.45;;;;;;;31.50;16.47;101324.81;5074215;28;20024;-74
2022/04/28 08:28:44;;;;;;;2.95;2.10;;;;;;;31.71;16.05;101339.16;5074653;28;20053;-74
2022/04/28 08:31:09;;;;;;;2.53;2.22;;;;;;;31.76;15.17;101322.63;5073862;28;20034;-76
2022/04/28 08:33:35;;;;;;;5.35;2.88;;;;;;;31.58;15.23;101328.47;5073950;28;20028;-76
2022/04/28 08:36:00;;;;;;;3.92;1.98;;;;;;;31.52;15.28;101322.03;5074221;28;20073;-76
2022/04/28 08:38:27;;;;;;;3.88;2.20;;;;;;;31.58;15.46;101331.41;5073622;28;20362;-74
2022/04/28 08:41:00;;;;;;;2.78;2.22;;;;;;;31.54;15.79;101321.41;5073835;28;20129;-76
2022/04/28 08:43:28;;;;;;;2.25;2.00;;;;;;;31.46;14.56;101330.34;5055935;28;20496;-76
2022/04/28 08:48:45;;;;;;;3.28;2.38;;;;;;;30.58;16.01;101347.44;5058775;28;20078;-75
2022/04/28 08:51:10;;;;;;;7.75;2.22;;;;;;;30.28;15.96;101339.53;5055796;28;20025;-76
2022/04/28 08:53:37;;;;;;;5.50;2.25;;;;;;;30.17;16.94;101337.00;5056068;28;20054;-75
2022/04/28 08:56:02;;;;;;;3.85;2.25;;;;;;;30.10;16.60;101334.06;5055596;28;20032;-74
2022/04/28 08:58:28;;;;;;;4.20;2.20;;;;;;;29.96;16.36;101330.59;5073812;28;20025;-74
2022/04/28 09:00:53;;;;;;;4.57;2.17;;;;;;;29.62;16.46;101333.97;5073665;28;20027;-76
2022/04/28 09:03:19;;;;;;;2.70;2.50;;;;;;;29.39;17.13;101334.00;5038860;28;20035;-75
2022/04/28 09:05:46;;;;;;;3.42;1.92;;;;;;;29.11;17.29;101334.16;5073809;28;20111;-76
2022/04/28 09:08:15;;;;;;;3.63;2.20;;;;;;;28.87;17.30;101317.91;5073462;28;20462;-76
2022/04/28 09:10:40;;;;;;;4.15;2.20;;;;;;;28.62;18.46;101334.44;5058086;28;20044;-76
2022/04/28 09:15:51;;;;;;;5.13;4.18;;;;;;;27.11;19.83;101325.50;5077900;28;20396;-73
2022/04/28 09:18:18;;;;;;;5.03;3.33;;;;;;;26.90;21.36;101325.47;5075249;28;20059;-74
2022/04/28 09:20:45;;;;;;;5.88;2.28;;;;;;;27.19;20.75;101311.69;5093815;28;20031;-75
2022/04/28 09:23:11;;;;;;;4.90;2.50;;;;;;;27.19;19.70;101329.25;5093918;28;20031;-75
2022/04/28 09:25:38;;;;;;;5.38;3.80;;;;;;;26.41;19.96;101329.03;5075509;28;20099;-75
2022/04/28 09:28:04;;;;;;;6.40;2.80;;;;;;;25.47;21.32;101330.94;5093637;28;20023;-74
2022/04/28 09:30:41;;;;;;;4.85;3.00;;;;;;;25.12;21.54;101326.28;5058781;28;20077;-75
2022/04/28 09:33:11;;;;;;;5.25;2.58;;;;;;;24.47;22.17;101333.44;5075532;28;20032;-74
2022/04/28 09:35:46;;;;;;;3.17;2.42;;;;;;;24.22;24.90;101347.28;5093445;28;20378;-75
2022/04/28 09:38:12;;;;;;;6.32;2.58;;;;;;;24.35;23.88;101338.63;5075217;28;20381;-75
2022/04/28 09:43:21;;;;;;;6.50;2.55;;;;;;;23.48;22.70;101337.03;5093540;28;20035;-75
2022/04/28 09:45:49;;;;;;;8.48;2.80;;;;;;;23.52;23.84;101346.25;5093321;28;20024;-75
2022/04/28 09:48:15;;;;;;;4.35;2.10;;;;;;;24.24;23.33;101340.88;5075096;28;20028;-75
2022/04/28 09:50:41;;;;;;;4.78;2.50;;;;;;;24.78;22.82;101341.41;5075494;28;20051;-74
2022/04/28 09:53:08;;;;;;;4.50;2.60;;;;;;;25.05;21.14;101332.78;5093161;28;20468;-74
2022/04/28 09:55:34;;;;;;;3.97;2.50;;;;;;;24.79;22.38;101330.53;5075126;28;20031;-74
2022/04/28 09:58:02;;;;;;;5.75;2.70;;;;;;;25.12;21.35;101332.91;5093175;28;20415;-74
2022/04/28 10:00:29;;;;;;;4.05;2.28;;;;;;;25.40;22.72;101344.09;5092907;28;20384;-75
2022/04/28 10:02:55;;;;;;;7.35;2.67;;;;;;;25.39;22.21;101333.75;5093315;28;20024;-75
2022/04/28 10:05:21;;;;;;;4.18;2.58;;;;;;;25.14;23.25;101330.22;5075086;28;20032;-75
2022/04/28 10:07:48;;;;;;;3.95;2.33;;;;;;;25.10;22.10;101334.81;5075363;28;20471;-74
2022/04/28 10:10:13;;;;;;;4.65;2.30;;;;;;;24.91;23.00;101331.97;5093101;28;20020;-74
2022/04/28 10:12:39;;;;;;;5.10;2.78;;;;;;;24.88;22.12;101335.97;5092745;28;20051;-75
2022/04/28 10:15:06;;;;;;;5.28;2.60;;;;;;;24.77;23.53;101328.16;5093065;28;20032;-74
2022/04/28 10:17:42;;;;;;;3.40;2.30;;;;;;;24.79;23.40;101325.50;5057758;28;20092;-75
2022/04/28 10:20:15;;;;;;;3.50;2.17;;;;;;;24.79;22.64;101324.69;5057915;28;20093;-74
2022/04/28 10:22:41;;;;;;;3.55;2.45;;;;;;;24.53;23.75;101334.13;5085351;28;20023;-74
2022/04/28 10:33:38;;;;;;;4.50;2.75;;;;;;;22.55;24.78;101324.81;5101717;28;20092;-78
2022/04/28 10:36:04;;;;;;;2.95;2.45;;;;;;;22.12;25.77;101331.16;5080610;28;20404;-72
2022/04/28 10:38:31;;;;;;;9.68;6.95;;;;;;;22.10;26.79;101319.31;5077492;28;20031;-75
2022/04/28 10:41:08;;;;;;;4.63;2.33;;;;;;;22.09;26.52;101325.66;5084180;28;20082;-76
2022/04/28 10:43:33;;;;;;;3.35;2.10;;;;;;;21.95;25.96;101330.47;5057952;28;20028;-76
2022/04/28 10:46:08;;;;;;;4.65;2.83;;;;;;;21.79;26.69;101328.38;5057722;28;20027;-72
2022/04/28 10:48:33;;;;;;;4.45;2.90;;;;;;;21.56;26.61;101318.19;5074389;28;20078;-74
2022/04/28 10:51:15;;;;;;;5.43;3.47;;;;;;;21.28;27.01;101319.03;5075902;28;20032;-73
2022/04/28 10:54:01;;;;;;;6.25;2.80;;;;;;;21.11;27.42;101324.84;5100265;28;20077;-74
2022/04/28 10:56:39;;;;;;;3.72;2.30;;;;;;;20.94;27.90;101332.72;5077828;28;20016;-74
2022/04/28 11:01:52;;;;;;;3.53;2.42;;;;;;;20.67;27.76;101322.72;5095908;28;20023;-74
2022/04/28 11:04:22;;;;;;;2.55;2.20;;;;;;;20.31;27.68;101314.25;5096191;28;20035;-74
2022/04/28 11:06:55;;;;;;;3.55;2.38;;;;;;;20.30;28.22;101309.72;5096124;28;20036;-75
2022/04/28 11:09:33;;;;;;;3.45;2.17;;;;;;;20.36;28.84;101317.16;5060679;28;20028;-75
2022/04/28 11:12:14;;;;;;;3.33;2.13;;;;;;;20.40;29.57;101328.47;5077451;28;20519;-73
2022/04/28 11:14:59;;;;;;;5.05;2.60;;;;;;;20.50;28.60;101324.00;5077580;28;20027;-76
2022/04/28 11:17:25;;;;;;;4.32;2.10;;;;;;;20.62;27.93;101325.63;5078239;28;20539;-75
2022/04/28 11:19:50;;;;;;;4.93;2.65;;;;;;;20.64;27.83;101322.97;5077442;28;20103;-75
2022/04/28 11:22:16;;;;;;;3.58;2.35;;;;;;;20.59;27.75;101310.06;5077826;28;20050;-76
2022/04/28 11:24:45;;;;;;;7.60;2.50;;;;;;;20.91;29.32;101312.72;5060839;28;20047;-75
2022/04/28 11:27:15;;;;;;;6.05;3.45;;;;;;;21.01;27.88;101325.63;5096095;28;20028;-75
2022/04/28 11:29:42;;;;;;;3.40;2.35;;;;;;;21.15;28.44;101310.09;5095476;28;20476;-75
2022/04/28 11:32:11;;;;;;;4.55;2.72;;;;;;;21.40;27.58;101317.69;5095292;28;20476;-76
2022/04/28 11:34:37;;;;;;;5.35;2.30;;;;;;;21.58;27.62;101303.94;5095602;28;20046;-76
2022/04/28 11:37:20;;;;;;;6.55;2.58;;;;;;;21.58;26.95;101309.72;5076051;28;20073;-74
2022/04/28 11:39:46;;;;;;;4.82;2.45;;;;;;;21.40;26.41;101316.91;5060436;28;20476;-76
2022/04/28 11:42:13;;;;;;;5.68;2.78;;;;;;;21.28;27.53;101316.13;5095184;28;20020;-76
2022/04/28 11:44:46;;;;;;;3.15;2.30;;;;;;;21.24;28.20;101314.81;5095052;28;20032;-75
2022/04/28 11:47:11;;;;;;;3.10;2.53;;;;;;;21.39;27.66;101318.22;5076825;28;20016;-75
2022/04/28 11:49:40;;;;;;;2.63;2.25;;;;;;;21.23;28.38;101311.13;5076964;28;20028;-76
2022/04/28 11:52:25;;;;;;;3.95;2.30;;;;;;;21.16;28.05;101314.59;5060466;28;20020;-75
2022/04/28 11:55:01;;;;;;;5.05;2.35;;;;;;;21.08;27.17;101322.97;5076990;28;20043;-75